Terminal Aerodrome Forecast
Issued by NWS

Home | Current Version | Previous Version | Text Only | Print | Product List | Glossary On
Versions: 1 2 3 4 5 6 7 8 9 10 11 12 13 14 15 16
000
FTUS43 KIWX 220548
TAFSBN
TAF
KSBN 220548Z 2206/2306 18010KT 3/4SM -RA BR OVC002
     FM220900 16009KT 3/4SM RA BR OVC003 WS020/22050KT
     FM221200 15008KT 1SM RA BR OVC008 WS020/22050KT
     FM221700 17013G22KT 3SM -SHRA BR OVC008
     FM230000 18009KT 3SM -SHRA BR BKN015=

USA.gov is the U.S. government's official web portal to all federal, state and local government web resources and services.